Time;durP1;ratioP1;P1;durP2;ratioP2;P2;SDS_P1;SDS_P2;PMS_P1;PMS_P2;Temp;Humidity;BMP_temperature;BMP_pressure;BME280_temperature;BME280_humidity;BME280_pressure;Samples;Min_cycle;Max_cycle;Signal;HPM_P1;HPM_P2
2022/06/02 00:00:01;;;;;;;14.60;10.50;;;12.90;80.70;;;;;;5046250;28;20035;-74
2022/06/02 00:02:42;;;;;;;13.98;12.52;;;12.90;80.70;;;;;;5050156;28;20341;-74
2022/06/02 00:05:34;;;;;;;14.65;11.30;;;12.90;80.70;;;;;;5050775;28;20048;-74
2022/06/02 00:08:16;;;;;;;14.27;12.27;;;12.80;80.90;;;;;;5030949;28;20022;-74
2022/06/02 00:11:05;;;;;;;15.80;12.40;;;12.80;81.20;;;;;;5049951;28;20032;-74
2022/06/02 00:13:41;;;;;;;15.23;11.70;;;12.80;81.50;;;;;;5050684;28;20168;-74
2022/06/02 00:16:13;;;;;;;17.83;13.07;;;12.70;81.70;;;;;;5049995;28;20852;-74
2022/06/02 00:18:53;;;;;;;14.32;12.18;;;12.70;81.80;;;;;;5048895;28;20083;-75
2022/06/02 00:21:27;;;;;;;13.40;11.88;;;12.70;82.00;;;;;;5048256;28;20378;-74
2022/06/02 00:24:18;;;;;;;16.77;12.80;;;12.70;81.90;;;;;;5050339;28;20559;-73
2022/06/02 00:27:07;;;;;;;13.75;11.45;;;12.70;81.90;;;;;;5049570;28;20390;-72
2022/06/02 00:29:40;;;;;;;14.80;12.75;;;12.70;81.90;;;;;;5049810;28;20025;-73
2022/06/02 00:32:13;;;;;;;14.80;12.85;;;12.70;82.20;;;;;;5048894;28;20021;-73
2022/06/02 00:34:51;;;;;;;19.10;13.70;;;12.70;82.20;;;;;;5048167;28;20048;-73
2022/06/02 00:37:40;;;;;;;14.10;12.27;;;12.70;82.20;;;;;;5049922;28;20127;-73
2022/06/02 00:40:07;;;;;;;17.88;14.05;;;12.60;82.10;;;;;;5048806;28;20024;-73
2022/06/02 00:42:49;;;;;;;15.77;13.90;;;12.70;82.20;;;;;;5049121;28;20071;-73
2022/06/02 00:45:17;;;;;;;13.88;11.73;;;12.60;82.40;;;;;;5048592;28;20047;-74
2022/06/02 00:47:51;;;;;;;15.75;14.15;;;12.60;82.40;;;;;;5038330;28;20083;-73
2022/06/02 00:51:02;;;;;;;15.70;14.10;;;12.60;82.50;;;;;;5033018;28;20091;-74
2022/06/02 01:00:07;;;;;;;16.60;14.50;;;12.50;83.10;;;;;;5049042;28;20414;-73
2022/06/02 01:03:05;;;;;;;17.33;14.85;;;12.40;83.30;;;;;;5047823;28;20096;-73
2022/06/02 01:06:05;;;;;;;20.88;15.50;;;12.40;83.60;;;;;;5047679;28;20435;-74
2022/06/02 01:08:45;;;;;;;22.02;16.33;;;12.40;83.80;;;;;;5046643;28;20070;-73
2022/06/02 01:12:00;;;;;;;18.33;15.43;;;12.40;84.00;;;;;;5048412;28;20100;-74
2022/06/02 01:15:00;;;;;;;18.65;14.65;;;12.40;84.10;;;;;;5014049;28;20537;-73
2022/06/02 01:18:01;;;;;;;17.67;14.93;;;12.40;83.90;;;;;;5046716;28;20025;-73
2022/06/02 01:20:33;;;;;;;18.10;15.27;;;12.40;83.80;;;;;;5028495;28;20113;-73
2022/06/02 01:23:09;;;;;;;18.55;14.73;;;12.40;83.80;;;;;;5043974;28;20029;-72
2022/06/02 01:26:06;;;;;;;19.70;16.42;;;12.40;84.00;;;;;;5047900;28;20059;-73
2022/06/02 01:29:04;;;;;;;17.85;15.75;;;12.40;84.20;;;;;;5046211;28;20048;-73
2022/06/02 01:31:44;;;;;;;19.42;15.95;;;12.30;84.10;;;;;;4977656;28;20028;-73
2022/06/02 01:34:34;;;;;;;18.27;16.20;;;12.30;84.10;;;;;;5048113;28;20049;-73
2022/06/02 01:37:15;;;;;;;18.75;16.23;;;12.40;84.20;;;;;;5042724;28;20128;-74
2022/06/02 01:40:05;;;;;;;18.52;16.02;;;12.30;83.80;;;;;;5048029;28;20040;-73
2022/06/02 01:42:52;;;;;;;18.70;15.25;;;12.40;83.80;;;;;;5048052;28;20025;-73
2022/06/02 01:45:49;;;;;;;17.38;15.25;;;12.40;83.50;;;;;;5048789;28;20029;-74
2022/06/02 01:48:33;;;;;;;19.48;15.65;;;12.40;83.20;;;;;;5051773;28;20734;-73
2022/06/02 01:51:16;;;;;;;19.63;17.50;;;12.40;83.10;;;;;;5052018;28;20036;-75
2022/06/02 01:53:51;;;;;;;19.63;17.15;;;12.30;83.20;;;;;;5047716;28;20029;-74
2022/06/02 01:56:32;;;;;;;18.80;16.50;;;12.30;83.10;;;;;;5031801;28;20087;-74
2022/06/02 01:59:25;;;;;;;23.23;18.33;;;12.30;83.40;;;;;;5048323;28;20037;-74
2022/06/02 02:01:59;;;;;;;18.67;16.67;;;12.30;83.70;;;;;;5032778;28;20025;-73
2022/06/02 02:04:44;;;;;;;18.92;16.73;;;12.20;83.90;;;;;;5049904;28;20051;-74
2022/06/02 02:07:18;;;;;;;20.15;17.15;;;12.20;83.90;;;;;;5051321;28;20032;-73
2022/06/02 02:09:56;;;;;;;20.52;16.52;;;12.20;84.10;;;;;;5051696;28;20489;-73
2022/06/02 02:12:43;;;;;;;24.10;19.05;;;12.10;84.20;;;;;;5051786;28;20025;-72
2022/06/02 02:15:19;;;;;;;20.45;18.23;;;12.10;84.10;;;;;;5048164;28;20028;-73
2022/06/02 02:18:03;;;;;;;23.02;18.17;;;12.10;84.00;;;;;;5051367;28;20028;-73
2022/06/02 02:20:40;;;;;;;21.95;19.15;;;12.10;84.00;;;;;;5051614;28;20218;-73
2022/06/02 02:23:26;;;;;;;19.27;16.13;;;12.10;83.80;;;;;;5050922;28;20025;-73
2022/06/02 02:26:06;;;;;;;21.35;18.17;;;12.10;83.70;;;;;;5051517;28;20029;-73
2022/06/02 02:28:52;;;;;;;24.23;19.23;;;12.10;83.70;;;;;;5051529;28;20025;-73
2022/06/02 02:31:26;;;;;;;21.67;18.00;;;12.10;84.00;;;;;;5041422;28;20075;-73
2022/06/02 02:34:18;;;;;;;22.17;19.88;;;12.00;84.00;;;;;;5051119;28;20120;-73
2022/06/02 02:36:49;;;;;;;25.33;19.80;;;12.00;84.50;;;;;;5043041;28;20025;-73
2022/06/02 02:39:28;;;;;;;23.55;18.38;;;12.00;83.80;;;;;;5050656;28;20060;-73
2022/06/02 02:42:01;;;;;;;21.67;19.13;;;12.00;84.00;;;;;;5050989;28;20037;-74
2022/06/02 02:44:35;;;;;;;24.25;19.65;;;12.00;84.00;;;;;;5051382;28;20017;-74
2022/06/02 02:47:09;;;;;;;25.17;20.33;;;11.90;83.90;;;;;;5051264;28;20148;-74
2022/06/02 02:49:47;;;;;;;25.77;21.25;;;11.90;84.10;;;;;;5051309;28;20068;-73
2022/06/02 02:52:39;;;;;;;28.88;21.15;;;11.90;84.10;;;;;;5050842;28;20033;-74
2022/06/02 02:55:13;;;;;;;26.40;21.58;;;11.90;84.40;;;;;;5051471;28;20021;-74
2022/06/02 02:57:52;;;;;;;25.38;20.75;;;11.90;84.50;;;;;;5049806;28;20043;-74
2022/06/02 03:00:21;;;;;;;24.83;20.40;;;11.80;84.60;;;;;;5051825;28;20358;-74
2022/06/02 03:03:17;;;;;;;25.38;21.63;;;11.80;84.80;;;;;;5050781;28;20071;-74
2022/06/02 03:05:56;;;;;;;19.27;15.23;;;11.80;85.00;;;;;;5050106;28;20047;-74
2022/06/02 03:08:45;;;;;;;26.85;22.80;;;11.80;85.10;;;;;;5051056;28;20021;-74
2022/06/02 03:11:19;;;;;;;29.77;24.33;;;11.70;85.90;;;;;;5050669;28;20434;-74
2022/06/02 03:14:22;;;;;;;30.60;21.95;;;11.70;86.20;;;;;;5050860;28;20029;-74
2022/06/02 03:16:56;;;;;;;29.10;23.13;;;11.70;86.30;;;;;;5048248;28;20063;-74
2022/06/02 03:19:33;;;;;;;30.15;24.95;;;11.70;86.00;;;;;;5050752;28;20505;-73
2022/06/02 03:22:45;;;;;;;26.65;22.85;;;11.70;85.90;;;;;;5050031;28;20029;-72
2022/06/02 03:25:38;;;;;;;24.30;21.50;;;11.70;85.90;;;;;;5025737;28;20044;-73
2022/06/02 03:28:36;;;;;;;28.02;22.58;;;11.70;85.80;;;;;;5039798;28;20372;-73
2022/06/02 03:31:27;;;;;;;27.58;22.85;;;11.70;85.60;;;;;;5049551;28;20108;-74
2022/06/02 03:34:20;;;;;;;26.55;22.05;;;11.70;85.70;;;;;;5050174;28;20131;-72
2022/06/02 03:36:54;;;;;;;29.08;22.50;;;11.70;85.70;;;;;;5049887;28;20025;-73
2022/06/02 03:39:45;;;;;;;27.80;22.98;;;11.70;85.70;;;;;;5047863;28;20398;-73
2022/06/02 03:42:17;;;;;;;28.63;24.08;;;11.60;85.90;;;;;;5049460;28;20028;-73
2022/06/02 03:44:51;;;;;;;27.40;22.55;;;11.60;85.90;;;;;;5048701;28;20136;-73
2022/06/02 03:47:49;;;;;;;25.23;22.08;;;11.60;85.90;;;;;;5048668;28;20033;-73
2022/06/02 03:50:14;;;;;;;26.60;22.55;;;11.60;85.90;;;;;;5030682;28;20483;-72
2022/06/02 03:53:11;;;;;;;28.95;22.42;;;11.70;85.90;;;;;;5048161;28;20067;-72
2022/06/02 03:55:59;;;;;;;26.20;21.00;;;11.80;85.80;;;;;;5031400;28;20018;-73
2022/06/02 03:58:46;;;;;;;26.23;22.52;;;11.80;85.50;;;;;;5048502;28;20400;-73
2022/06/02 04:01:24;;;;;;;26.27;22.17;;;11.80;85.40;;;;;;5049742;28;20029;-73
2022/06/02 04:04:00;;;;;;;28.52;23.20;;;11.80;85.40;;;;;;5044854;28;20025;-74
2022/06/02 04:06:44;;;;;;;27.58;23.67;;;11.80;85.50;;;;;;5048098;28;20028;-73
2022/06/02 04:09:09;;;;;;;30.27;22.88;;;11.80;85.60;;;;;;5035835;28;20487;-73
2022/06/02 04:15:19;;;;;;;26.35;22.58;;;11.80;85.50;;;;;;5039129;28;20067;-73
2022/06/02 04:18:01;;;;;;;30.40;22.73;;;11.80;85.50;;;;;;5049116;28;20116;-74
2022/06/02 04:20:46;;;;;;;26.63;22.52;;;11.80;85.80;;;;;;5049204;28;20108;-74
2022/06/02 04:23:24;;;;;;;27.02;23.48;;;11.80;85.90;;;;;;5041074;28;20032;-72
2022/06/02 04:25:56;;;;;;;25.33;21.77;;;11.80;86.00;;;;;;5047999;28;20032;-73
2022/06/02 04:28:41;;;;;;;26.90;23.00;;;11.80;86.20;;;;;;5048908;28;20435;-73
2022/06/02 04:31:42;;;;;;;27.88;24.08;;;11.90;86.40;;;;;;5049180;28;20368;-73
2022/06/02 04:34:19;;;;;;;26.40;22.55;;;11.90;86.60;;;;;;5048491;28;20045;-73
2022/06/02 04:37:09;;;;;;;27.30;22.20;;;12.00;86.60;;;;;;5039457;28;20446;-73
2022/06/02 04:39:58;;;;;;;30.08;26.10;;;12.00;86.70;;;;;;5047010;28;20112;-73
2022/06/02 04:42:42;;;;;;;26.73;23.75;;;12.10;86.60;;;;;;5048896;28;20430;-73
2022/06/02 04:45:17;;;;;;;27.05;21.08;;;12.10;86.60;;;;;;5048874;28;20086;-72
2022/06/02 04:48:17;;;;;;;28.67;24.15;;;12.20;86.50;;;;;;5047366;28;20044;-73
2022/06/02 04:51:13;;;;;;;23.97;21.10;;;12.30;86.50;;;;;;5047532;28;20020;-72
2022/06/02 04:53:47;;;;;;;30.38;25.08;;;12.40;86.60;;;;;;5047840;28;20132;-73
2022/06/02 04:56:21;;;;;;;24.25;21.55;;;12.50;86.50;;;;;;5048821;28;20047;-73
2022/06/02 04:58:51;;;;;;;30.27;24.60;;;12.50;86.50;;;;;;5048315;28;20029;-73
2022/06/02 05:01:26;;;;;;;29.80;25.57;;;12.60;86.50;;;;;;5048868;28;20019;-73
2022/06/02 05:04:18;;;;;;;31.02;24.88;;;12.80;86.40;;;;;;5046433;28;20823;-73
2022/06/02 05:07:19;;;;;;;27.65;22.77;;;12.90;86.80;;;;;;5047492;28;20031;-74
2022/06/02 05:10:02;;;;;;;29.13;25.25;;;12.90;85.60;;;;;;5048150;28;20048;-74
2022/06/02 05:12:46;;;;;;;30.38;24.35;;;13.10;85.80;;;;;;5048091;28;20021;-74
2022/06/02 05:15:12;;;;;;;24.75;19.35;;;13.10;85.80;;;;;;5047966;28;20162;-74
2022/06/02 05:18:12;;;;;;;27.38;23.65;;;13.20;85.50;;;;;;5043960;28;20058;-73
2022/06/02 05:20:55;;;;;;;24.77;21.85;;;13.30;85.30;;;;;;5048403;28;20059;-74
2022/06/02 05:23:37;;;;;;;30.13;24.25;;;13.40;84.60;;;;;;5028092;28;20025;-74
2022/06/02 05:26:15;;;;;;;23.23;19.98;;;13.50;84.50;;;;;;5046147;28;20048;-72
2022/06/02 05:29:07;;;;;;;24.13;21.35;;;13.60;84.50;;;;;;5046851;28;20430;-74
2022/06/02 05:31:47;;;;;;;23.90;20.38;;;13.70;84.20;;;;;;5043807;28;20155;-74
2022/06/02 05:34:20;;;;;;;;;;;13.80;83.70;;;;;;5047233;28;20116;-74
2022/06/02 05:37:04;;;;;;;23.73;20.42;;;13.90;83.30;;;;;;5047856;28;19909;-74
2022/06/02 05:39:38;;;;;;;23.98;20.45;;;13.90;82.90;;;;;;5034105;28;20037;-72
2022/06/02 05:42:26;;;;;;;18.40;15.00;;;14.00;82.70;;;;;;5044806;28;20040;-73
2022/06/02 05:45:12;;;;;;;21.60;18.10;;;14.00;82.60;;;;;;5047540;28;20025;-73
2022/06/02 05:47:52;;;;;;;21.60;18.33;;;13.90;83.00;;;;;;5048609;28;20025;-75
2022/06/02 05:50:29;;;;;;;;;;;14.00;83.30;;;;;;5055043;28;20103;-74
2022/06/02 05:53:27;;;;;;;22.52;19.42;;;14.10;83.20;;;;;;5049788;28;19908;-73
2022/06/02 05:56:22;;;;;;;20.80;18.45;;;14.20;83.20;;;;;;5040624;28;20122;-74
2022/06/02 05:59:15;;;;;;;20.67;17.15;;;14.30;82.70;;;;;;5047429;28;20078;-74
2022/06/02 06:02:30;;;;;;;21.20;17.15;;;14.40;82.10;;;;;;5046146;28;20032;-73
2022/06/02 06:05:09;;;;;;;18.45;15.00;;;14.50;81.80;;;;;;5058988;28;20025;-73
2022/06/02 06:07:41;;;;;;;10.83;7.83;;;14.70;81.50;;;;;;5046502;28;20032;-72
2022/06/02 06:10:19;;;;;;;17.15;9.10;;;14.80;80.70;;;;;;5047827;28;20328;-76
2022/06/02 06:12:56;;;;;;;9.75;7.43;;;14.90;80.50;;;;;;5047896;28;20025;-74
2022/06/02 06:15:56;;;;;;;12.98;9.35;;;15.00;80.20;;;;;;5064052;28;20044;-73
2022/06/02 06:18:25;;;;;;;12.13;9.75;;;15.10;79.00;;;;;;5044144;28;20053;-74
2022/06/02 06:21:03;;;;;;;13.43;8.85;;;15.20;78.50;;;;;;5047940;28;20056;-73
2022/06/02 06:24:03;;;;;;;13.35;9.77;;;15.30;77.60;;;;;;5048687;28;20025;-72
2022/06/02 06:26:34;;;;;;;;;;;15.40;76.00;;;;;;5055709;28;20028;-75
2022/06/02 06:29:30;;;;;;;11.57;6.82;;;15.40;76.20;;;;;;5046787;28;19942;-74
2022/06/02 06:32:14;;;;;;;8.40;6.20;;;15.50;75.60;;;;;;5042934;28;20029;-74
2022/06/02 06:34:45;;;;;;;7.55;4.93;;;15.50;75.40;;;;;;5043398;28;20077;-74
2022/06/02 06:37:45;;;;;;;8.13;5.15;;;15.70;74.40;;;;;;5048755;28;20017;-74
2022/06/02 06:40:35;;;;;;;8.38;5.63;;;15.70;74.00;;;;;;5047372;28;20025;-74
2022/06/02 06:43:31;;;;;;;11.18;5.20;;;15.80;73.60;;;;;;5047971;28;20057;-74
2022/06/02 06:46:08;;;;;;;7.72;5.55;;;16.00;73.30;;;;;;5046177;28;20130;-76
2022/06/02 06:49:11;;;;;;;7.45;4.68;;;16.20;72.90;;;;;;5044976;28;20103;-74
2022/06/02 06:51:44;;;;;;;7.70;4.13;;;16.30;71.80;;;;;;5046312;28;20102;-76
2022/06/02 06:54:32;;;;;;;10.85;5.65;;;16.40;71.70;;;;;;5051772;28;20032;-75
2022/06/02 06:57:07;;;;;;;5.57;3.40;;;16.50;70.50;;;;;;5052267;28;20120;-74
2022/06/02 06:59:54;;;;;;;5.60;3.72;;;16.60;68.20;;;;;;5048547;28;20035;-76
2022/06/02 07:02:38;;;;;;;5.80;1.75;;;16.70;68.00;;;;;;5032320;28;20150;-73
2022/06/02 07:05:26;;;;;;;3.45;1.80;;;16.70;66.40;;;;;;5038419;28;20159;-78
2022/06/02 07:08:24;;;;;;;6.45;1.85;;;16.70;65.90;;;;;;5051061;28;20028;-78
2022/06/02 07:14:33;;;;;;;9.85;6.82;;;16.40;70.20;;;;;;5051574;28;20136;-79
2022/06/02 07:17:03;;;;;;;9.18;5.15;;;16.60;70.50;;;;;;5031896;28;20029;-76
2022/06/02 07:19:42;;;;;;;6.78;4.20;;;16.80;69.40;;;;;;5046437;28;20041;-75
2022/06/02 07:22:31;;;;;;;7.15;3.03;;;16.90;68.50;;;;;;5037748;28;20059;-76
2022/06/02 07:25:23;;;;;;;9.75;5.22;;;17.10;65.30;;;;;;5044010;28;20102;-76
2022/06/02 07:27:49;;;;;;;8.55;5.28;;;17.20;67.40;;;;;;5030395;28;20041;-75
2022/06/02 07:30:14;;;;;;;8.00;5.13;;;17.20;67.10;;;;;;5047927;28;20029;-76
2022/06/02 07:33:02;;;;;;;7.55;5.15;;;17.10;67.00;;;;;;5046631;28;20071;-75
2022/06/02 07:35:51;;;;;;;7.40;4.13;;;17.10;66.50;;;;;;5049510;28;20396;-76
2022/06/02 07:38:23;;;;;;;7.82;4.20;;;17.00;65.00;;;;;;5047507;28;20030;-75
2022/06/02 07:41:09;;;;;;;9.23;4.97;;;17.00;65.00;;;;;;5050681;28;20032;-76
2022/06/02 07:43:50;;;;;;;6.15;5.00;;;16.90;65.00;;;;;;5051347;28;20088;-74
2022/06/02 07:46:55;;;;;;;10.10;4.45;;;17.00;64.10;;;;;;5048684;28;20108;-75
2022/06/02 07:49:35;;;;;;;6.85;3.83;;;17.10;63.30;;;;;;5009000;28;20492;-75
2022/06/02 07:52:22;;;;;;;5.95;3.60;;;17.20;62.40;;;;;;5040710;28;20625;-74
2022/06/02 07:55:12;;;;;;;8.90;3.83;;;17.10;62.50;;;;;;5049185;28;20104;-74
2022/06/02 07:57:57;;;;;;;7.30;4.40;;;17.00;63.10;;;;;;5050326;28;20033;-76
2022/06/02 08:00:54;;;;;;;4.15;1.90;;;17.10;63.60;;;;;;5049505;28;20033;-75
2022/06/02 08:03:45;;;;;;;5.70;3.35;;;17.30;63.40;;;;;;5030744;28;20048;-74
2022/06/02 08:06:11;;;;;;;3.78;2.00;;;;;;;;;;5044902;28;20032;-75
2022/06/02 08:09:07;;;;;;;5.35;3.03;;;17.80;59.90;;;;;;5049755;28;20033;-75
2022/06/02 08:11:48;;;;;;;7.47;3.00;;;18.10;59.20;;;;;;5044893;28;20108;-76
2022/06/02 08:15:06;;;;;;;7.20;3.25;;;18.50;59.30;;;;;;5038020;28;20029;-76
2022/06/02 08:17:42;;;;;;;7.13;2.72;;;18.70;58.90;;;;;;4980323;28;20568;-74
2022/06/02 08:20:46;;;;;;;2.80;1.20;;;19.00;58.80;;;;;;4978510;28;20041;-75
2022/06/02 08:23:23;;;;;;;3.35;2.15;;;19.20;57.90;;;;;;5026061;28;20372;-75
2022/06/02 08:25:58;;;;;;;6.35;3.28;;;19.30;57.00;;;;;;5040827;28;20018;-74
2022/06/02 08:28:27;;;;;;;5.68;2.65;;;19.20;56.90;;;;;;5038498;28;20028;-74
2022/06/02 08:31:32;;;;;;;2.45;1.45;;;19.10;55.90;;;;;;5045101;28;20078;-74
2022/06/02 08:34:39;;;;;;;6.40;2.10;;;19.20;56.00;;;;;;5047288;28;20060;-75
2022/06/02 08:37:26;;;;;;;2.38;1.15;;;19.60;54.20;;;;;;5045549;28;20037;-76
2022/06/02 08:40:10;;;;;;;3.95;1.95;;;19.80;53.50;;;;;;5049598;28;20040;-76
2022/06/02 08:42:51;;;;;;;4.10;1.90;;;19.80;52.20;;;;;;5047440;28;20049;-76
2022/06/02 08:45:36;;;;;;;;;;;20.00;51.50;;;;;;5051774;28;20451;-75
2022/06/02 08:48:23;;;;;;;2.38;1.05;;;20.10;51.80;;;;;;5050514;28;19915;-74
2022/06/02 08:51:40;;;;;;;1.50;0.90;;;20.40;52.40;;;;;;5039356;28;20038;-75
2022/06/02 08:54:40;;;;;;;4.68;1.80;;;20.50;53.50;;;;;;5007395;28;20116;-75
2022/06/02 08:57:24;;;;;;;1.48;0.70;;;20.60;52.80;;;;;;5041093;28;20045;-74
2022/06/02 08:59:55;;;;;;;3.22;1.08;;;20.80;53.30;;;;;;5039505;28;20131;-74
2022/06/02 09:02:42;;;;;;;3.83;1.63;;;20.80;52.60;;;;;;5042575;28;20017;-74
2022/06/02 09:05:30;;;;;;;3.92;1.25;;;20.80;51.60;;;;;;5039872;28;20071;-74
2022/06/02 09:08:29;;;;;;;3.13;1.30;;;20.70;52.80;;;;;;5044540;28;20040;-75
2022/06/02 09:11:26;;;;;;;2.80;1.37;;;20.90;51.50;;;;;;5029033;28;20037;-75
2022/06/02 09:13:53;;;;;;;1.98;0.70;;;21.30;50.20;;;;;;5048131;28;20116;-74
2022/06/02 09:16:35;;;;;;;3.00;1.13;;;21.40;49.60;;;;;;5047924;28;20085;-74
2022/06/02 09:19:38;;;;;;;4.63;1.50;;;21.40;47.40;;;;;;5048212;28;20021;-75
2022/06/02 09:22:09;;;;;;;2.30;1.20;;;21.30;47.20;;;;;;5047876;28;20029;-75
2022/06/02 09:24:58;;;;;;;4.75;1.70;;;21.10;47.70;;;;;;5046203;28;20017;-74
2022/06/02 09:27:57;;;;;;;2.55;0.90;;;20.90;47.90;;;;;;5046672;28;20491;-74
2022/06/02 09:30:22;;;;;;;3.00;1.08;;;21.10;46.20;;;;;;5039179;28;20040;-74
2022/06/02 09:33:33;;;;;;;3.60;1.80;;;21.40;46.80;;;;;;5047196;28;20024;-74
2022/06/02 09:36:19;;;;;;;5.15;1.70;;;21.70;45.90;;;;;;5047179;28;20072;-75
2022/06/02 09:39:03;;;;;;;5.38;2.15;;;21.80;45.20;;;;;;5009476;28;20119;-76
2022/06/02 09:41:47;;;;;;;3.83;2.55;;;21.90;47.80;;;;;;5047311;28;20373;-76
2022/06/02 09:44:26;;;;;;;6.93;3.40;;;22.00;49.20;;;;;;5050014;28;20135;-77
2022/06/02 09:47:19;;;;;;;6.75;2.85;;;22.20;47.80;;;;;;5048466;28;20031;-76
2022/06/02 09:50:00;;;;;;;2.97;1.90;;;22.00;47.30;;;;;;5048454;28;20033;-75
2022/06/02 09:52:34;;;;;;;5.45;2.45;;;21.90;47.90;;;;;;5048451;28;20531;-74
2022/06/02 09:55:13;;;;;;;5.43;2.65;;;21.60;47.70;;;;;;5047903;28;20051;-75
2022/06/02 09:58:20;;;;;;;4.53;2.28;;;21.40;48.40;;;;;;5027832;28;20042;-75
2022/06/02 10:01:10;;;;;;;5.80;2.28;;;21.40;50.30;;;;;;5044645;28;20054;-74
2022/06/02 10:03:42;;;;;;;5.55;2.03;;;21.60;48.50;;;;;;5040977;28;20490;-75
2022/06/02 10:06:29;;;;;;;4.88;2.17;;;21.80;46.70;;;;;;5043763;28;20013;-76
2022/06/02 10:09:03;;;;;;;4.93;1.55;;;22.10;46.40;;;;;;5043870;28;20031;-76
2022/06/02 10:11:40;;;;;;;3.72;1.20;;;22.10;45.60;;;;;;5042390;28;20037;-75
2022/06/02 10:14:33;;;;;;;2.75;0.93;;;22.40;48.00;;;;;;5042031;28;20021;-74
2022/06/02 10:17:18;;;;;;;2.40;1.20;;;22.80;48.20;;;;;;5041863;28;20033;-74
2022/06/02 10:20:21;;;;;;;4.22;1.10;;;23.20;43.60;;;;;;5043861;28;20036;-74
2022/06/02 10:23:26;;;;;;;3.55;1.48;;;23.40;43.40;;;;;;5036699;28;20116;-75
2022/06/02 10:26:06;;;;;;;3.20;2.13;;;23.30;43.60;;;;;;4993006;28;20043;-75
2022/06/02 10:28:59;;;;;;;3.42;2.33;;;22.80;44.70;;;;;;5045524;28;20029;-76
2022/06/02 10:31:57;;;;;;;4.72;2.50;;;22.20;46.30;;;;;;5051560;28;20044;-74
2022/06/02 10:34:48;;;;;;;3.75;2.25;;;21.90;46.80;;;;;;5051561;28;20060;-74
2022/06/02 10:37:43;;;;;;;6.88;2.45;;;21.60;47.50;;;;;;5051159;28;20530;-75
2022/06/02 10:40:39;;;;;;;4.30;2.28;;;21.40;47.50;;;;;;5051053;28;20025;-75
2022/06/02 10:43:21;;;;;;;5.85;2.30;;;21.50;48.30;;;;;;5051755;28;20467;-74
2022/06/02 10:45:58;;;;;;;4.90;1.98;;;21.90;48.40;;;;;;5051938;28;20032;-75
2022/06/02 10:48:39;;;;;;;1.45;0.60;;;22.40;45.40;;;;;;5052074;28;20078;-74
2022/06/02 10:51:42;;;;;;;2.70;0.90;;;22.70;49.20;;;;;;5051843;28;20080;-76
2022/06/02 10:54:36;;;;;;;6.25;2.15;;;23.00;47.70;;;;;;5050015;28;20017;-76
2022/06/02 10:57:01;;;;;;;5.35;3.03;;;23.20;45.20;;;;;;5049746;28;20480;-75
2022/06/02 10:59:59;;;;;;;5.07;1.95;;;23.10;42.40;;;;;;5051598;28;20037;-75
2022/06/02 11:02:44;;;;;;;5.28;1.85;;;23.30;42.40;;;;;;5052110;28;20032;-76
2022/06/02 11:05:29;;;;;;;1.80;1.10;;;23.50;41.90;;;;;;5052499;28;20032;-75
2022/06/02 11:08:14;;;;;;;2.45;0.88;;;23.60;45.40;;;;;;5047442;28;20079;-75
2022/06/02 11:11:07;;;;;;;3.88;1.58;;;23.50;50.80;;;;;;5051820;28;20496;-76
2022/06/02 11:13:52;;;;;;;3.67;0.90;;;23.50;46.60;;;;;;5041218;28;20025;-75
2022/06/02 11:16:35;;;;;;;1.88;0.70;;;23.70;48.50;;;;;;5050431;28;20029;-75
2022/06/02 11:19:38;;;;;;;3.67;1.20;;;24.10;48.50;;;;;;5043759;28;20037;-75
2022/06/02 11:22:40;;;;;;;1.58;0.82;;;24.50;47.10;;;;;;5050176;28;20060;-77
2022/06/02 11:25:44;;;;;;;1.35;0.68;;;24.90;48.10;;;;;;5051597;28;20029;-77
2022/06/02 11:28:32;;;;;;;1.52;0.63;;;24.90;50.60;;;;;;5051981;28;20032;-75
2022/06/02 11:31:24;;;;;;;4.63;1.65;;;24.60;47.30;;;;;;5050916;28;20038;-76
2022/06/02 11:34:05;;;;;;;4.10;1.75;;;24.30;41.40;;;;;;5051904;28;20045;-76
2022/06/02 11:37:19;;;;;;;2.13;1.10;;;23.90;39.90;;;;;;5053625;28;20040;-74
2022/06/02 11:40:14;;;;;;;2.15;1.02;;;23.50;42.00;;;;;;5022411;28;20051;-76
2022/06/02 11:43:16;;;;;;;3.25;1.10;;;23.20;43.50;;;;;;5058824;28;20021;-75
2022/06/02 11:46:11;;;;;;;3.80;1.15;;;22.90;53.10;;;;;;5053765;28;20025;-78
2022/06/02 11:49:07;;;;;;;3.88;0.65;;;23.10;48.70;;;;;;5052237;28;20064;-75
2022/06/02 11:51:51;;;;;;;3.25;1.05;;;23.30;53.80;;;;;;5039187;28;20056;-76
2022/06/02 11:54:50;;;;;;;5.32;1.50;;;23.60;41.10;;;;;;5054154;28;20025;-76
2022/06/02 11:57:40;;;;;;;4.55;1.10;;;23.80;40.10;;;;;;5051370;28;20082;-75
2022/06/02 12:00:13;;;;;;;2.55;0.60;;;24.10;38.70;;;;;;5039814;28;20037;-76
2022/06/02 12:03:14;;;;;;;1.10;0.50;;;24.40;47.00;;;;;;5059965;28;20025;-74
2022/06/02 12:06:00;;;;;;;3.08;1.30;;;24.50;46.60;;;;;;5042584;28;20032;-75
2022/06/02 12:08:53;;;;;;;4.55;1.08;;;24.50;40.30;;;;;;5053232;28;20025;-75
2022/06/02 12:11:40;;;;;;;3.45;1.65;;;24.60;39.60;;;;;;5050082;28;20132;-77
2022/06/02 12:14:34;;;;;;;2.97;1.30;;;24.80;39.00;;;;;;5050387;28;20032;-76
2022/06/02 12:17:33;;;;;;;1.77;0.80;;;24.80;36.80;;;;;;5034412;28;20052;-75
2022/06/02 12:20:14;;;;;;;4.22;1.50;;;25.00;43.30;;;;;;5041389;28;20083;-76
2022/06/02 12:22:52;;;;;;;2.72;1.33;;;25.10;37.10;;;;;;5038667;28;20112;-76
2022/06/02 12:25:40;;;;;;;3.13;0.85;;;25.30;37.60;;;;;;5050739;28;20039;-75
2022/06/02 12:28:32;;;;;;;3.30;1.38;;;25.30;47.20;;;;;;5050897;28;20036;-75
2022/06/02 12:31:03;;;;;;;1.60;0.90;;;25.30;37.60;;;;;;5049063;28;20056;-75
2022/06/02 12:33:50;;;;;;;2.75;1.10;;;25.40;42.30;;;;;;5050431;28;20049;-75
2022/06/02 12:36:15;;;;;;;1.75;0.80;;;25.40;42.30;;;;;;5049663;28;20175;-74
2022/06/02 12:38:59;;;;;;;2.53;0.50;;;25.30;40.90;;;;;;5048644;28;20369;-74
2022/06/02 12:41:33;;;;;;;2.03;0.50;;;25.20;45.80;;;;;;5048770;28;20036;-76
2022/06/02 12:44:20;;;;;;;2.13;0.68;;;25.40;48.00;;;;;;5049198;28;20044;-75
2022/06/02 12:47:00;;;;;;;4.07;1.30;;;25.50;48.20;;;;;;5047810;28;20493;-76
2022/06/02 12:49:45;;;;;;;1.47;0.63;;;25.40;43.30;;;;;;5050382;28;20479;-75
2022/06/02 12:52:32;;;;;;;1.67;1.25;;;25.40;45.00;;;;;;5048901;28;20028;-74
2022/06/02 12:55:20;;;;;;;1.42;0.90;;;25.50;42.10;;;;;;5050024;28;20017;-75
2022/06/02 12:58:09;;;;;;;2.42;0.60;;;25.30;46.00;;;;;;5049405;28;20112;-75
2022/06/02 13:01:00;;;;;;;3.60;1.67;;;25.10;45.10;;;;;;5049890;28;20025;-75
2022/06/02 13:04:03;;;;;;;3.60;1.02;;;25.10;40.50;;;;;;5042116;28;20423;-74
2022/06/02 13:06:47;;;;;;;0.88;0.57;;;24.90;45.40;;;;;;5042826;28;20035;-75
2022/06/02 13:09:29;;;;;;;3.08;1.52;;;24.70;50.70;;;;;;5039770;28;20033;-74
2022/06/02 13:12:22;;;;;;;3.35;1.50;;;24.80;41.70;;;;;;5040407;28;20037;-73
2022/06/02 13:15:16;;;;;;;4.00;1.23;;;24.90;41.30;;;;;;5046458;28;20137;-73
2022/06/02 13:17:47;;;;;;;1.92;0.73;;;24.50;43.70;;;;;;5038314;28;20407;-74
2022/06/02 13:20:22;;;;;;;6.20;1.88;;;24.30;47.60;;;;;;5048419;28;20029;-74
2022/06/02 13:23:16;;;;;;;3.42;1.50;;;24.20;45.40;;;;;;5041223;28;20025;-74
2022/06/02 13:26:26;;;;;;;2.25;1.50;;;24.30;41.10;;;;;;5012094;28;20094;-73
2022/06/02 13:29:00;;;;;;;4.73;1.37;;;24.80;42.50;;;;;;5015591;28;20498;-74
2022/06/02 13:31:52;;;;;;;6.70;1.30;;;25.20;40.20;;;;;;5049354;28;20499;-74
2022/06/02 13:34:39;;;;;;;1.73;1.02;;;25.40;39.30;;;;;;5049283;28;20109;-73
2022/06/02 13:37:34;;;;;;;4.05;1.38;;;25.60;41.60;;;;;;5048863;28;20056;-75
2022/06/02 13:40:12;;;;;;;3.67;1.40;;;25.70;41.90;;;;;;5042229;28;20041;-74
2022/06/02 13:43:16;;;;;;;1.73;0.98;;;25.60;40.90;;;;;;5055019;28;20025;-74
2022/06/02 13:46:03;;;;;;;2.72;1.30;;;25.60;45.10;;;;;;5054398;28;20132;-74
2022/06/02 13:48:58;;;;;;;3.33;1.13;;;25.90;39.00;;;;;;5053875;28;20028;-74
2022/06/02 13:52:05;;;;;;;1.70;0.60;;;26.40;44.10;;;;;;5053766;28;20035;-74
2022/06/02 13:57:44;;;;;;;3.05;1.10;;;26.30;43.20;;;;;;4965603;28;20038;-73
2022/06/02 14:00:28;;;;;;;1.98;0.90;;;26.30;39.20;;;;;;5040071;28;20048;-74
2022/06/02 14:02:56;;;;;;;1.50;0.80;;;26.40;41.60;;;;;;5054283;28;20120;-74
2022/06/02 14:05:43;;;;;;;3.63;1.10;;;26.50;45.70;;;;;;5053501;28;20056;-75
2022/06/02 14:08:26;;;;;;;3.17;0.75;;;26.50;41.50;;;;;;5055314;28;20098;-72
2022/06/02 14:11:27;;;;;;;2.13;1.05;;;26.50;43.60;;;;;;5035747;28;20025;-74
2022/06/02 14:14:29;;;;;;;2.22;0.85;;;26.20;45.60;;;;;;5052975;28;20102;-74
2022/06/02 14:17:32;;;;;;;1.98;0.80;;;25.60;44.80;;;;;;5043243;28;20391;-74
2022/06/02 14:20:28;;;;;;;4.72;0.75;;;25.00;49.70;;;;;;5045709;28;20395;-73
2022/06/02 14:23:04;;;;;;;3.05;0.63;;;24.60;52.60;;;;;;5048933;28;20040;-74
2022/06/02 14:25:33;;;;;;;2.00;0.80;;;24.60;53.60;;;;;;5052016;28;20394;-74
2022/06/02 14:28:20;;;;;;;2.15;0.70;;;24.90;52.70;;;;;;5054679;28;20025;-74
2022/06/02 14:31:11;;;;;;;3.88;1.20;;;25.10;50.30;;;;;;5056723;28;20056;-75